createdAt,value
2022-10-18T00:03:37.575Z,14.74
2022-10-18T00:08:42.681Z,14.74
2022-10-18T00:13:47.537Z,14.82
2022-10-18T00:18:54.984Z,14.67
2022-10-18T00:23:59.853Z,14.69
2022-10-18T00:29:07.291Z,14.60
2022-10-18T00:34:18.119Z,14.46
2022-10-18T00:39:24.736Z,14.37
2022-10-18T00:44:59.770Z,14.55
2022-10-18T00:50:09.866Z,14.51
2022-10-18T00:55:14.893Z,14.28
2022-10-18T01:00:21.161Z,14.35
2022-10-18T01:05:29.337Z,14.22
2022-10-18T01:10:41.651Z,14.29
2022-10-18T01:15:54.659Z,14.22
2022-10-18T01:21:26.216Z,14.05
2022-10-18T01:26:48.530Z,14.22
2022-10-18T01:32:02.307Z,14.12
2022-10-18T01:37:12.474Z,14.08
2022-10-18T01:42:22.571Z,14.02
2022-10-18T01:47:31.081Z,13.91
2022-10-18T01:52:36.219Z,13.83
2022-10-18T01:57:45.492Z,13.83
2022-10-18T02:02:59.147Z,13.94
2022-10-18T02:08:22.925Z,14.02
2022-10-18T02:13:32.851Z,13.85
2022-10-18T02:18:44.088Z,13.87
2022-10-18T02:23:49.959Z,13.69
2022-10-18T02:28:55.059Z,13.70
2022-10-18T02:34:07.296Z,13.70
2022-10-18T02:39:17.142Z,13.54
2022-10-18T02:44:21.823Z,13.58
2022-10-18T02:49:29.361Z,13.57
2022-10-18T02:54:34.185Z,13.56
2022-10-18T02:59:38.926Z,13.43
2022-10-18T03:04:46.354Z,13.41
2022-10-18T03:09:51.351Z,13.47
2022-10-18T03:14:56.287Z,13.45
2022-10-18T03:20:03.693Z,13.41
2022-10-18T03:25:08.752Z,13.47
2022-10-18T03:30:14.507Z,13.43
2022-10-18T03:35:21.841Z,13.43
2022-10-18T03:40:26.637Z,13.38
2022-10-18T03:45:31.796Z,13.45
2022-10-18T03:50:39.222Z,13.32
2022-10-18T03:55:44.490Z,13.42
2022-10-18T04:00:52.329Z,13.27
2022-10-18T04:06:00.931Z,13.22
2022-10-18T04:11:10.111Z,13.41
2022-10-18T04:16:14.893Z,13.69
2022-10-18T04:21:22.420Z,13.82
2022-10-18T04:26:27.219Z,13.71
2022-10-18T04:31:31.998Z,13.65
2022-10-18T04:36:39.735Z,13.53
2022-10-18T04:41:44.474Z,13.60
2022-10-18T04:46:49.278Z,13.62
2022-10-18T04:51:56.675Z,13.54
2022-10-18T04:57:01.669Z,13.49
2022-10-18T05:02:07.107Z,13.74
2022-10-18T05:07:14.729Z,13.80
2022-10-18T05:12:19.647Z,13.67
2022-10-18T05:17:24.726Z,13.85
2022-10-18T05:22:32.351Z,13.65
2022-10-18T05:27:37.654Z,13.81
2022-10-18T05:32:42.461Z,13.91
2022-10-18T05:37:49.880Z,13.98
2022-10-18T05:42:55.074Z,13.75
2022-10-18T05:48:01.586Z,13.78
2022-10-18T05:53:12.498Z,13.84
2022-10-18T05:58:30.076Z,13.82
2022-10-18T06:03:36.199Z,13.72
2022-10-18T06:08:45.274Z,13.77
2022-10-18T06:13:52.351Z,13.90
2022-10-18T06:19:00.020Z,13.89
2022-10-18T06:24:09.770Z,13.87
2022-10-18T06:29:14.869Z,13.93
2022-10-18T06:34:19.718Z,14.03
2022-10-18T06:39:27.345Z,14.16
2022-10-18T06:44:32.159Z,14.16
2022-10-18T06:49:38.931Z,14.02
2022-10-18T06:54:46.265Z,14.55
2022-10-18T06:59:58.659Z,14.47
2022-10-18T07:05:03.766Z,14.47
2022-10-18T07:10:13.117Z,14.75
2022-10-18T07:15:18.265Z,14.96
2022-10-18T07:20:23.501Z,14.97
2022-10-18T07:25:33.629Z,15.06
2022-10-18T07:30:38.661Z,14.97
2022-10-18T07:35:43.416Z,14.89
2022-10-18T07:40:51.187Z,14.95
2022-10-18T07:45:56.605Z,14.98
2022-10-18T07:51:02.697Z,14.90
2022-10-18T07:56:16.723Z,14.86
2022-10-18T08:01:22.745Z,15.00
2022-10-18T08:06:28.399Z,14.89
2022-10-18T08:11:36.039Z,15.13
2022-10-18T08:16:40.923Z,14.96
2022-10-18T08:21:48.604Z,14.79
2022-10-18T08:26:59.089Z,14.92
2022-10-18T08:32:04.319Z,15.09
2022-10-18T08:37:09.152Z,15.02
2022-10-18T08:42:34.503Z,15.00
2022-10-18T08:47:42.619Z,14.98
2022-10-18T08:52:53.735Z,15.11
2022-10-18T08:58:02.381Z,15.01
2022-10-18T09:03:22.229Z,15.23
2022-10-18T09:08:55.661Z,15.18
2022-10-18T09:14:20.469Z,15.35
2022-10-18T09:19:42.515Z,15.54
2022-10-18T09:24:56.149Z,15.30
2022-10-18T09:30:12.988Z,15.34
2022-10-18T09:35:22.761Z,15.50
2022-10-18T09:40:32.761Z,15.66
2022-10-18T09:45:44.497Z,15.71
2022-10-18T09:50:55.323Z,16.02
2022-10-18T09:56:05.292Z,16.09
2022-10-18T10:01:16.191Z,16.16
2022-10-18T10:06:28.175Z,16.29
2022-10-18T10:11:38.078Z,16.54
2022-10-18T10:16:52.948Z,16.71
2022-10-18T10:22:02.774Z,17.07
2022-10-18T10:27:10.027Z,17.23
2022-10-18T10:32:19.152Z,17.14
2022-10-18T10:37:31.299Z,17.16
2022-10-18T10:42:39.007Z,17.20
2022-10-18T10:47:46.645Z,17.30
2022-10-18T10:52:51.661Z,17.01
2022-10-18T10:57:58.074Z,16.79
2022-10-18T11:03:30.988Z,16.33
2022-10-18T11:08:41.800Z,16.00
2022-10-18T11:14:07.250Z,16.21
2022-10-18T11:19:35.585Z,16.05
2022-10-18T11:24:40.576Z,16.06
2022-10-18T11:29:58.193Z,16.08
2022-10-18T11:35:24.874Z,15.99
2022-10-18T11:40:48.138Z,16.05
2022-10-18T11:46:01.474Z,16.26
2022-10-18T11:51:19.141Z,16.38
2022-10-18T11:56:31.350Z,16.41
2022-10-18T12:01:42.292Z,16.44
2022-10-18T12:06:53.325Z,16.48
2022-10-18T12:12:04.789Z,16.45
2022-10-18T12:17:41.092Z,16.17
2022-10-18T12:22:52.834Z,16.50
2022-10-18T12:28:05.996Z,16.28
2022-10-18T12:33:27.677Z,16.25
2022-10-18T12:38:38.532Z,16.32
2022-10-18T12:43:43.456Z,16.19
2022-10-18T12:48:53.057Z,16.22
2022-10-18T12:54:14.751Z,15.99
2022-10-18T12:59:53.800Z,16.20
2022-10-18T13:05:00.809Z,16.33
2022-10-18T13:10:41.301Z,16.25
2022-10-18T13:15:54.739Z,16.30
2022-10-18T13:21:11.921Z,16.23
2022-10-18T13:26:26.177Z,16.36
2022-10-18T13:31:42.877Z,16.21
2022-10-18T13:36:58.182Z,16.44
2022-10-18T13:42:35.070Z,16.49
2022-10-18T13:47:42.780Z,16.43
2022-10-18T13:53:28.813Z,16.33
2022-10-18T13:58:49.202Z,16.27
2022-10-18T14:04:42.064Z,15.99
2022-10-18T14:09:54.895Z,15.97
2022-10-18T14:15:08.299Z,16.20
2022-10-18T14:20:36.914Z,16.23
2022-10-18T14:25:50.119Z,16.28
2022-10-18T14:30:59.455Z,16.45
2022-10-18T14:36:14.543Z,16.27
2022-10-18T14:41:25.477Z,15.99
2022-10-18T14:46:31.734Z,16.01
2022-10-18T14:51:41.906Z,16.09
2022-10-18T14:56:47.743Z,15.77
2022-10-18T15:01:58.765Z,15.84
2022-10-18T15:07:08.262Z,15.93
2022-10-18T15:12:17.675Z,15.93
2022-10-18T15:17:27.859Z,15.76
2022-10-18T15:22:36.433Z,15.86
2022-10-18T15:27:45.253Z,15.79
2022-10-18T15:32:52.740Z,15.70
2022-10-18T15:38:03.729Z,15.51
2022-10-18T15:43:47.307Z,15.77
2022-10-18T15:48:52.200Z,15.69
2022-10-18T15:53:59.733Z,15.75
2022-10-18T15:59:07.152Z,15.66
2022-10-18T16:04:20.172Z,15.76
2022-10-18T16:09:29.976Z,15.91
2022-10-18T16:14:36.444Z,15.67
2022-10-18T16:19:41.228Z,15.51
2022-10-18T16:24:48.756Z,15.84
2022-10-18T16:29:53.697Z,15.51
2022-10-18T16:34:58.563Z,15.31
2022-10-18T16:40:21.626Z,15.39
2022-10-18T16:45:26.654Z,15.16
2022-10-18T16:50:34.705Z,15.35
2022-10-18T16:55:44.896Z,15.21
2022-10-18T17:00:50.008Z,15.10
2022-10-18T17:05:56.580Z,15.33
2022-10-18T17:11:04.334Z,15.35
2022-10-18T17:16:10.323Z,15.51
2022-10-18T17:21:15.272Z,15.55
2022-10-18T17:26:29.272Z,15.32
2022-10-18T17:31:35.748Z,15.43
2022-10-18T17:36:41.861Z,15.49
2022-10-18T17:41:49.309Z,15.42
2022-10-18T17:46:54.683Z,15.24
2022-10-18T17:52:03.288Z,15.44
2022-10-18T17:57:14.459Z,15.40
2022-10-18T18:02:19.478Z,15.08
2022-10-18T18:07:24.547Z,15.34
2022-10-18T18:12:32.079Z,15.28
2022-10-18T18:17:55.955Z,15.25
2022-10-18T18:23:01.795Z,15.22
2022-10-18T18:28:09.229Z,15.29
2022-10-18T18:33:14.168Z,15.23
2022-10-18T18:38:19.167Z,15.07
2022-10-18T18:43:30.082Z,15.13
2022-10-18T18:48:36.596Z,15.34
2022-10-18T18:53:42.990Z,15.02
2022-10-18T18:58:50.640Z,15.16
2022-10-18T19:03:57.858Z,14.94
2022-10-18T19:09:04.892Z,15.00
2022-10-18T19:14:12.712Z,14.96
2022-10-18T19:19:20.153Z,14.98
2022-10-18T19:24:26.578Z,14.77
2022-10-18T19:29:37.092Z,14.77
2022-10-18T19:34:45.000Z,14.65
2022-10-18T19:39:49.958Z,14.62
2022-10-18T19:45:00.017Z,14.64
2022-10-18T19:50:04.853Z,14.50
2022-10-18T19:55:10.848Z,14.47
2022-10-18T20:00:19.803Z,14.38
2022-10-18T20:05:24.620Z,14.48
2022-10-18T20:10:30.348Z,14.52
2022-10-18T20:15:38.569Z,14.35
2022-10-18T20:20:45.821Z,14.43
2022-10-18T20:26:01.481Z,14.31
2022-10-18T20:31:11.200Z,14.31
2022-10-18T20:36:18.451Z,14.17
2022-10-18T20:41:25.105Z,14.10
2022-10-18T20:46:34.938Z,14.18
2022-10-18T20:51:39.792Z,14.07
2022-10-18T20:56:44.785Z,14.23
2022-10-18T21:01:52.293Z,14.23
2022-10-18T21:06:57.519Z,14.30
2022-10-18T21:12:02.362Z,14.16
2022-10-18T21:17:09.945Z,14.20
2022-10-18T21:22:14.847Z,14.20
2022-10-18T21:27:19.703Z,14.30
2022-10-18T21:32:27.292Z,14.19
2022-10-18T21:37:32.140Z,14.20
2022-10-18T21:42:36.973Z,14.06
2022-10-18T21:47:44.398Z,14.02
2022-10-18T21:52:49.254Z,14.02
2022-10-18T21:57:54.257Z,14.27
2022-10-18T22:03:12.465Z,14.14
2022-10-18T22:08:19.568Z,14.18
2022-10-18T22:13:24.351Z,14.10
2022-10-18T22:18:32.433Z,14.07
2022-10-18T22:23:40.238Z,13.98
2022-10-18T22:28:46.557Z,14.10
2022-10-18T22:33:59.147Z,14.08
2022-10-18T22:39:08.560Z,14.09
2022-10-18T22:44:15.010Z,13.93
2022-10-18T22:49:22.518Z,13.88
2022-10-18T22:54:27.651Z,13.93
2022-10-18T22:59:32.634Z,14.00
2022-10-18T23:04:40.346Z,13.97
2022-10-18T23:09:45.155Z,13.58
2022-10-18T23:14:49.911Z,13.47
2022-10-18T23:19:57.338Z,13.44
2022-10-18T23:25:02.188Z,13.42
2022-10-18T23:30:07.943Z,13.15
2022-10-18T23:35:15.964Z,13.26
2022-10-18T23:40:20.917Z,13.05
2022-10-18T23:45:27.209Z,13.10
2022-10-18T23:50:34.857Z,13.16
2022-10-18T23:55:39.845Z,12.93
